Time;durP1;ratioP1;P1;durP2;ratioP2;P2;SDS_P1;SDS_P2;PMS_P1;PMS_P2;Temp;Humidity;BMP_temperature;BMP_pressure;BME280_temperature;BME280_humidity;BME280_pressure;Samples;Min_cycle;Max_cycle;Signal;HPM_P1;HPM_P2
2021/12/06 00:01:30;;;;;;;;;7.00;5.50;;;;;6.84;70.68;100565.06;4994114;28;45728;-79
2021/12/06 00:04:01;;;;;;;;;3.00;3.00;;;;;6.80;70.52;100569.38;4993371;28;45466;-84
2021/12/06 00:06:28;;;;;;;;;5.50;5.50;;;;;6.76;70.89;100569.38;4976171;28;45488;-83
2021/12/06 00:08:54;;;;;;;;;6.00;3.75;;;;;6.49;71.09;100521.31;4994648;28;45329;-84
2021/12/06 00:11:19;;;;;;;;;5.50;5.50;;;;;6.82;70.72;100570.28;4975734;28;47589;-85
2021/12/06 00:13:47;;;;;;;;;8.00;6.00;;;;;6.73;70.87;100566.75;4993880;28;45333;-83
2021/12/06 00:16:19;;;;;;;;;5.00;5.00;;;;;6.80;70.86;100577.25;4993741;28;45382;-84
2021/12/06 00:18:46;;;;;;;;;4.25;3.75;;;;;6.91;70.97;100589.47;4993647;28;45581;-84
2021/12/06 00:21:12;;;;;;;;;9.00;7.25;;;;;6.74;70.45;100547.59;4993467;28;46085;-83
2021/12/06 00:23:38;;;;;;;;;4.75;4.75;;;;;6.73;70.30;100561.53;4993645;28;45528;-80
2021/12/06 00:26:05;;;;;;;;;9.50;7.50;;;;;6.94;70.41;100584.28;4993932;28;45426;-84
2021/12/06 00:28:31;;;;;;;;;6.75;5.50;;;;;7.00;70.43;100581.66;4993988;28;45375;-82
2021/12/06 00:30:56;;;;;;;;;7.00;6.75;;;;;6.69;70.50;100528.38;4993395;28;45473;-83
2021/12/06 00:33:24;;;;;;;;;6.25;5.75;;;;;6.85;70.25;100556.34;4993505;28;45375;-83
2021/12/06 00:36:15;;;;;;;;;5.25;3.25;;;;;5.92;70.50;100387.78;4993818;28;45380;-84
2021/12/06 00:38:44;;;;;;;;;8.00;6.25;;;;;7.12;70.23;100589.56;4976163;28;45384;-84
2021/12/06 00:41:11;;;;;;;;;4.50;4.00;;;;;6.96;70.60;100569.47;4993403;28;46824;-84
2021/12/06 00:43:36;;;;;;;;;5.50;3.50;;;;;6.96;70.53;100564.22;4993540;28;45380;-84
2021/12/06 00:46:01;;;;;;;;;5.50;5.50;;;;;6.87;70.44;100550.22;4993709;28;45460;-84
2021/12/06 00:48:27;;;;;;;;;5.50;3.00;;;;;7.14;69.89;100605.28;4993699;28;45517;-83
2021/12/06 00:50:53;;;;;;;;;4.00;4.00;;;;;6.76;69.98;100558.91;4993047;28;47106;-85
2021/12/06 00:53:18;;;;;;;;;5.00;5.00;;;;;7.15;70.55;100620.09;4993095;28;45394;-84
2021/12/06 00:55:44;;;;;;;;;7.00;5.50;;;;;6.82;70.29;100554.59;4993509;28;45383;-82
2021/12/06 00:58:09;;;;;;;;;9.00;7.25;;;;;7.12;70.07;100607.00;4993770;28;45454;-84
2021/12/06 01:00:39;;;;;;;;;6.00;6.00;;;;;7.23;69.68;100616.66;4993200;28;46249;-84
2021/12/06 01:03:09;;;;;;;;;6.75;6.50;;;;;7.00;70.32;100571.19;4993135;28;45397;-85
2021/12/06 01:05:35;;;;;;;;;4.00;4.00;;;;;7.23;69.81;100605.31;4993406;28;45405;-84
2021/12/06 01:08:01;;;;;;;;;6.00;6.00;;;;;7.27;69.79;100617.50;4993330;28;45564;-84
2021/12/06 01:10:28;;;;;;;;;7.00;6.50;;;;;7.38;70.14;100633.25;4993023;28;45383;-82
2021/12/06 01:12:56;;;;;;;;;6.75;4.50;;;;;7.30;70.32;100623.66;4993150;28;45328;-81
2021/12/06 01:15:21;;;;;;;;;10.25;9.00;;;;;7.24;70.16;100617.50;4992980;28;45581;-83
2021/12/06 01:17:47;;;;;;;;;6.50;5.00;;;;;7.12;70.61;100597.41;4993396;28;45384;-84
2021/12/06 01:20:18;;;;;;;;;6.75;5.75;;;;;7.41;70.56;100641.13;4995071;28;46192;-84
2021/12/06 01:22:51;;;;;;;;;8.00;7.00;;;;;7.20;70.56;100634.06;4995943;28;45567;-84
2021/12/06 01:26:16;;;;;;;;;10.00;7.75;;;;;6.89;70.93;100572.94;4996393;28;45327;-83
2021/12/06 01:31:00;;;;;;;;;5.00;5.00;;;;;7.24;70.59;100636.69;4995992;28;45789;-83
2021/12/06 01:41:58;;;;;;;;;8.00;8.00;;;;;7.12;71.06;100620.09;4995806;28;45782;-82
2021/12/06 01:44:26;;;;;;;;;8.25;6.75;;;;;7.37;70.79;100670.78;4977762;28;45257;-82
2021/12/06 01:47:22;;;;;;;;;7.00;7.00;;;;;7.33;70.96;100663.78;4996159;28;45400;-84
2021/12/06 01:49:54;;;;;;;;;4.00;4.00;;;;;7.05;70.87;100612.22;4995834;28;45303;-85
2021/12/06 01:52:27;;;;;;;;;5.50;4.00;;;;;7.43;71.01;100676.03;4995052;28;46701;-82
2021/12/06 01:54:54;;;;;;;;;7.50;4.00;;;;;7.46;71.04;100686.50;4996090;28;45255;-83
2021/12/06 01:57:21;;;;;;;;;9.00;8.25;;;;;7.37;70.85;100669.03;4995603;28;45302;-85
2021/12/06 01:59:46;;;;;;;;;7.00;7.00;;;;;6.84;71.13;100597.31;4995704;28;45523;-84
2021/12/06 02:02:12;;;;;;;;;6.75;6.25;;;;;6.85;71.02;100591.22;4995400;28;47164;-84
2021/12/06 02:04:40;;;;;;;;;8.00;3.75;;;;;7.35;70.44;100681.25;4995785;28;45498;-83
2021/12/06 02:07:09;;;;;;;;;3.25;3.25;;;;;7.23;70.84;100655.03;4995711;28;45446;-83
2021/12/06 02:09:34;;;;;;;;;3.00;3.00;;;;;7.28;71.04;100666.41;4995750;28;45340;-83
2021/12/06 02:12:02;;;;;;;;;7.50;3.75;;;;;7.55;70.77;100707.50;4995523;28;45384;-84
2021/12/06 02:14:49;;;;;;;;;4.50;4.50;;;;;7.34;70.83;100676.00;4995380;28;45492;-82
2021/12/06 02:17:24;;;;;;;;;7.00;6.00;;;;;7.33;70.85;100679.50;4995769;28;45428;-83
2021/12/06 02:19:56;;;;;;;;;8.25;6.25;;;;;7.50;70.62;100715.34;4979604;28;45509;-85
2021/12/06 02:22:25;;;;;;;;;6.25;6.25;;;;;7.49;71.10;100705.72;4995065;28;46074;-84
2021/12/06 02:24:53;;;;;;;;;7.50;7.50;;;;;7.57;70.76;100718.88;4995515;28;45448;-84
2021/12/06 02:27:20;;;;;;;;;6.00;3.25;;;;;7.58;70.83;100717.97;4995465;28;45356;-84
2021/12/06 02:29:48;;;;;;;;;7.75;6.00;;;;;7.41;71.12;100693.47;4995750;28;45265;-84
2021/12/06 02:32:14;;;;;;;;;10.75;7.00;;;;;7.46;70.59;100702.22;4995037;28;46478;-83
2021/12/06 02:34:44;;;;;;;;;10.50;7.25;;;;;7.43;71.50;100707.47;4995484;28;45455;-84
2021/12/06 02:37:10;;;;;;;;;7.25;4.50;;;;;6.89;71.39;100641.81;4995448;28;45375;-85
2021/12/06 02:39:37;;;;;;;;;9.00;5.50;;;;;7.11;71.83;100671.56;4995671;28;45500;-84
2021/12/06 02:42:05;;;;;;;;;6.75;6.75;;;;;7.14;71.69;100676.81;4977233;28;46285;-84
2021/12/06 02:44:31;;;;;;;;;7.00;7.00;;;;;7.36;71.32;100710.94;4977416;28;45739;-83
2021/12/06 02:46:56;;;;;;;;;7.25;5.50;;;;;7.14;71.53;100679.41;4995722;28;45414;-82
2021/12/06 02:49:23;;;;;;;;;8.50;7.75;;;;;7.36;71.61;100734.50;4978479;28;45404;-83
2021/12/06 02:51:51;;;;;;;;;7.00;7.00;;;;;7.35;71.50;100714.41;4995106;28;46201;-81
2021/12/06 02:54:20;;;;;;;;;7.50;6.00;;;;;7.21;71.54;100673.34;4995190;28;45252;-83
2021/12/06 02:59:30;;;;;;;;;6.00;6.00;;;;;6.92;70.97;100639.22;4995445;28;45420;-84
2021/12/06 03:01:59;;;;;;;;;7.25;6.25;;;;;7.34;71.55;100720.50;4995206;28;46590;-84
2021/12/06 03:04:24;;;;;;;;;9.00;7.00;;;;;7.26;71.90;100721.34;4995117;28;45415;-82
2021/12/06 03:06:54;;;;;;;;;6.00;6.00;;;;;6.75;71.75;100639.13;4995025;28;45488;-85
2021/12/06 03:09:26;;;;;;;;;6.00;6.00;;;;;7.21;71.52;100730.06;4977427;28;45529;-83
2021/12/06 03:12:07;;;;;;;;;4.00;4.00;;;;;7.16;72.05;100710.84;4994832;28;45289;-83
2021/12/06 03:14:45;;;;;;;;;7.00;5.00;;;;;7.31;72.07;100750.19;4994801;28;46119;-83
2021/12/06 03:17:13;;;;;;;;;7.25;6.25;;;;;7.35;72.18;100746.72;4995081;28;45697;-83
2021/12/06 03:19:40;;;;;;;;;7.00;7.00;;;;;7.21;71.70;100732.69;4995158;28;45431;-83
2021/12/06 03:22:08;;;;;;;;;3.50;3.50;;;;;7.03;72.25;100708.19;4994726;28;46436;-82
2021/12/06 03:24:33;;;;;;;;;6.00;5.50;;;;;7.29;71.97;100749.28;4995137;28;45339;-82
2021/12/06 03:26:59;;;;;;;;;7.00;7.00;;;;;7.26;72.06;100731.81;4996003;28;45669;-81
2021/12/06 03:29:26;;;;;;;;;9.00;7.00;;;;;7.23;71.53;100731.81;4998261;28;45386;-82
2021/12/06 03:31:52;;;;;;;;;4.50;4.50;;;;;7.35;71.79;100756.28;4994438;28;46170;-83
2021/12/06 03:34:18;;;;;;;;;6.00;6.00;;;;;7.41;71.86;100767.66;4996330;28;45476;-82
2021/12/06 03:36:44;;;;;;;;;6.25;6.25;;;;;7.21;71.98;100733.56;4996617;28;45351;-82
2021/12/06 03:39:20;;;;;;;;;9.00;9.00;;;;;7.35;72.26;100746.72;4996271;28;45432;-80
2021/12/06 03:41:47;;;;;;;;;7.75;6.75;;;;;7.30;71.82;100733.59;4994181;28;46565;-82
2021/12/06 03:44:12;;;;;;;;;4.00;4.00;;;;;7.50;72.21;100759.84;4977665;28;45397;-83
2021/12/06 03:46:39;;;;;;;;;6.00;6.00;;;;;7.53;71.96;100751.13;4997596;28;45388;-81
2021/12/06 03:49:12;;;;;;;;;4.00;4.00;;;;;7.57;71.64;100754.63;4996483;28;45265;-83
2021/12/06 03:51:38;;;;;;;;;6.50;6.50;;;;;7.32;71.57;100723.13;4995529;28;46299;-83
2021/12/06 03:54:05;;;;;;;;;4.00;3.50;;;;;7.50;72.26;100762.47;4996080;28;45251;-82
2021/12/06 03:56:30;;;;;;;;;6.25;6.25;;;;;7.36;71.74;100737.97;4996852;28;45228;-83
2021/12/06 03:58:56;;;;;;;;;4.50;4.50;;;;;7.27;71.89;100730.06;5011802;28;45317;-83
2021/12/06 04:01:21;;;;;;;;;6.00;6.00;;;;;7.45;71.99;100755.47;5020078;27;46541;-81
2021/12/06 04:03:47;;;;;;;;;2.75;2.00;;;;;7.24;72.09;100733.56;5021694;27;44733;-81
2021/12/06 04:06:13;;;;;;;;;12.00;8.75;;;;;7.46;72.55;100793.88;5021345;27;44724;-80
2021/12/06 04:08:38;;;;;;;;;6.00;6.00;;;;;7.45;72.06;100789.53;5018841;28;44720;-84
2021/12/06 04:11:04;;;;;;;;;9.00;7.75;;;;;7.32;72.17;100779.84;5019280;27;45518;-81
2021/12/06 04:13:30;;;;;;;;;11.25;8.00;;;;;7.02;72.55;100742.19;4998160;28;45146;-83
2021/12/06 04:15:57;;;;;;;;;11.50;11.50;;;;;7.32;72.98;100800.78;4995030;28;45445;-82
2021/12/06 04:18:22;;;;;;;;;10.25;8.25;;;;;7.39;73.00;100818.28;4977514;28;45526;-83
2021/12/06 04:20:48;;;;;;;;;8.75;7.75;;;;;7.29;72.64;100809.50;4994110;28;46361;-84
2021/12/06 04:23:14;;;;;;;;;8.25;8.25;;;;;7.25;72.58;100807.72;4993913;28;45383;-83
2021/12/06 04:25:40;;;;;;;;;6.00;6.00;;;;;7.32;72.83;100809.50;4994178;28;45660;-82
2021/12/06 04:28:07;;;;;;;;;8.25;8.25;;;;;7.14;73.23;100770.16;4994549;28;45723;-83
2021/12/06 04:30:35;;;;;;;;;9.00;7.50;;;;;7.32;72.64;100813.88;4976264;28;47261;-84
2021/12/06 04:33:01;;;;;;;;;7.00;6.00;;;;;7.37;73.02;100825.25;4975784;28;45386;-84
2021/12/06 04:35:27;;;;;;;;;13.00;7.00;;;;;7.11;72.84;100775.38;4993910;28;45400;-85
2021/12/06 04:37:53;;;;;;;;;9.25;8.00;;;;;7.27;72.95;100796.41;4993650;28;45384;-84
2021/12/06 04:40:19;;;;;;;;;9.75;9.50;;;;;7.33;72.83;100805.19;4993451;28;45391;-83
2021/12/06 04:42:45;;;;;;;;;7.00;6.50;;;;;7.28;73.24;100813.00;4993630;28;45311;-83
2021/12/06 04:45:12;;;;;;;;;7.25;7.00;;;;;7.37;72.90;100838.34;4993748;28;45226;-82
2021/12/06 04:47:38;;;;;;;;;8.00;7.00;;;;;7.19;73.35;100829.50;4994041;28;45462;-81
2021/12/06 04:50:07;;;;;;;;;7.75;7.75;;;;;6.78;73.97;100769.94;4975438;28;47124;-83
2021/12/06 04:52:33;;;;;;;;;7.00;4.50;;;;;6.98;73.76;100808.44;4993224;28;45351;-83
2021/12/06 04:55:01;;;;;;;;;9.00;7.75;;;;;7.33;73.88;100862.78;4995379;28;45361;-82
2021/12/06 04:57:36;;;;;;;;;5.50;3.00;;;;;7.09;73.57;100814.63;4996909;28;45267;-84
2021/12/06 05:00:04;;;;;;;;;7.00;7.00;;;;;7.34;74.28;100864.53;4996338;28;46398;-82
2021/12/06 05:02:36;;;;;;;;;12.25;8.50;;;;;7.35;73.71;100850.53;4996110;28;45452;-82
2021/12/06 05:05:08;;;;;;;;;7.00;7.00;;;;;7.43;73.88;100867.19;4996476;28;45245;-84
2021/12/06 05:07:39;;;;;;;;;11.25;8.75;;;;;7.44;73.78;100856.72;4996707;28;45387;-84
2021/12/06 05:10:09;;;;;;;;;11.50;8.00;;;;;7.51;73.53;100873.34;4978421;28;46424;-85
2021/12/06 05:12:36;;;;;;;;;8.50;7.75;;;;;7.29;73.59;100831.31;4996389;28;45339;-84
2021/12/06 05:15:03;;;;;;;;;11.25;11.25;;;;;7.60;73.63;100881.25;4996611;28;45388;-84
2021/12/06 05:17:29;;;;;;;;;12.00;9.00;;;;;7.47;73.55;100855.84;5000704;28;45346;-81
2021/12/06 05:19:55;;;;;;;;;12.25;10.25;;;;;7.50;73.41;100856.75;5001908;28;45487;-83
2021/12/06 05:22:21;;;;;;;;;11.75;11.00;;;;;7.71;73.21;100876.94;5000812;28;45392;-84
2021/12/06 05:24:47;;;;;;;;;10.75;10.75;;;;;7.48;72.94;100829.69;4999027;28;45363;-84
2021/12/06 05:27:12;;;;;;;;;13.25;11.75;;;;;7.78;72.79;100884.84;4978921;28;45369;-83
2021/12/06 05:29:38;;;;;;;;;13.25;12.50;;;;;7.24;72.36;100804.25;4996320;28;45448;-85
2021/12/06 05:32:05;;;;;;;;;9.00;9.00;;;;;7.56;72.39;100853.28;4996046;28;45398;-82
2021/12/06 05:34:43;;;;;;;;;11.50;7.00;;;;;7.51;72.61;100871.59;4978300;28;45441;-83
2021/12/06 05:37:12;;;;;;;;;11.50;11.50;;;;;7.53;72.94;100892.56;4984792;28;45375;-80
2021/12/06 05:39:39;;;;;;;;;16.50;9.50;;;;;7.45;72.80;100891.66;4985895;28;46215;-84
2021/12/06 05:42:11;;;;;;;;;10.25;7.00;;;;;7.61;73.15;100906.56;4994200;28;45380;-84
2021/12/06 05:44:37;;;;;;;;;10.25;10.25;;;;;7.51;72.99;100889.06;5012295;28;45424;-83
2021/12/06 05:47:04;;;;;;;;;15.75;12.25;;;;;7.63;72.62;100904.84;4976697;28;45498;-76
2021/12/06 05:49:30;;;;;;;;;10.00;8.25;;;;;7.57;72.76;100883.88;4980589;28;46278;-74
2021/12/06 05:51:56;;;;;;;;;13.25;11.25;;;;;7.56;72.70;100879.47;4985556;28;45363;-75
2021/12/06 05:54:22;;;;;;;;;8.25;8.00;;;;;7.61;72.52;100910.94;4983765;28;45408;-76
2021/12/06 05:56:47;;;;;;;;;10.25;8.75;;;;;7.52;72.92;100901.28;4985261;28;45467;-82
2021/12/06 05:59:14;;;;;;;;;14.00;13.75;;;;;7.66;72.62;100914.47;4985958;28;46033;-80
2021/12/06 06:01:40;;;;;;;;;8.75;8.50;;;;;7.57;72.21;100896.97;4986253;28;45463;-79
2021/12/06 06:04:05;;;;;;;;;8.25;8.25;;;;;7.64;72.32;100913.56;4985597;28;45398;-79
2021/12/06 06:06:34;;;;;;;;;11.00;11.00;;;;;7.59;72.40;100900.44;4986991;28;45487;-78
2021/12/06 06:09:00;;;;;;;;;10.25;8.75;;;;;7.71;72.59;100921.47;4994993;28;46395;-78
2021/12/06 06:11:27;;;;;;;;;10.00;9.00;;;;;7.62;72.48;100903.09;4995032;28;45368;-77
2021/12/06 06:13:53;;;;;;;;;11.25;9.75;;;;;7.70;72.34;100909.25;4995116;28;45299;-75
2021/12/06 06:16:21;;;;;;;;;14.00;12.00;;;;;7.68;72.55;100912.72;4985943;28;45515;-75
2021/12/06 06:18:49;;;;;;;;;10.00;9.00;;;;;7.58;71.54;100895.22;4975152;28;45485;-75
2021/12/06 06:21:15;;;;;;;;;9.50;9.00;;;;;7.75;72.11;100926.75;4957450;28;45788;-75
2021/12/06 06:23:41;;;;;;;;;10.25;9.00;;;;;7.55;72.03;100919.66;4975318;28;45595;-76
2021/12/06 06:26:07;;;;;;;;;12.25;7.50;;;;;7.63;71.80;100944.13;4979957;28;45219;-77
2021/12/06 06:28:32;;;;;;;;;6.75;6.75;;;;;7.58;71.74;100932.75;4994674;28;46304;-77
2021/12/06 06:30:58;;;;;;;;;12.50;9.25;;;;;7.59;72.04;100939.75;4985477;28;45328;-78
2021/12/06 06:33:23;;;;;;;;;10.75;7.75;;;;;7.43;71.94;100928.31;4994367;28;45332;-75
2021/12/06 06:35:49;;;;;;;;;13.25;13.25;;;;;7.29;72.08;100920.34;4987800;28;45545;-82
2021/12/06 06:38:16;;;;;;;;;9.50;9.50;;;;;7.43;71.96;100951.00;4974713;28;47398;-76
2021/12/06 06:40:42;;;;;;;;;10.50;10.25;;;;;7.23;72.03;100912.44;4977383;28;45517;-71
2021/12/06 06:43:08;;;;;;;;;12.50;10.50;;;;;7.45;72.58;100949.28;4974749;28;45508;-71
2021/12/06 06:45:33;;;;;;;;;12.75;11.50;;;;;7.44;72.25;100939.66;4974818;28;45136;-72
2021/12/06 06:47:59;;;;;;;;;12.25;12.25;;;;;7.46;72.65;100937.91;4974317;28;46304;-73
2021/12/06 06:50:25;;;;;;;;;16.75;12.00;;;;;7.53;72.38;100939.72;4974130;28;45376;-80
2021/12/06 06:52:51;;;;;;;;;12.25;12.25;;;;;7.48;72.10;100942.31;4974395;28;45208;-79
2021/12/06 06:55:17;;;;;;;;;16.00;15.25;;;;;7.48;72.27;100930.94;4974568;28;45713;-78
2021/12/06 06:57:45;;;;;;;;;13.00;12.00;;;;;7.43;71.77;100906.47;4974423;28;46550;-79
2021/12/06 07:00:26;;;;;;;;;10.50;10.50;;;;;7.42;71.83;100907.31;4956713;28;45377;-78
2021/12/06 07:02:52;;;;;;;;;15.00;13.25;;;;;7.58;71.32;100953.72;4956902;28;45364;-78
2021/12/06 07:05:18;;;;;;;;;12.50;11.50;;;;;7.71;71.29;100968.63;4974706;28;45450;-73
2021/12/06 07:07:43;;;;;;;;;12.75;10.25;;;;;7.51;71.21;100941.44;4974020;28;46076;-77
2021/12/06 07:10:10;;;;;;;;;14.00;13.75;;;;;7.73;71.51;100972.16;4975991;28;45528;-78
2021/12/06 07:12:44;;;;;;;;;10.25;9.75;;;;;7.50;71.65;100934.47;4956984;28;45475;-78
2021/12/06 07:15:12;;;;;;;;;14.25;14.25;;;;;7.58;71.07;100958.09;4974366;28;45535;-78
2021/12/06 07:17:41;;;;;;;;;13.50;13.25;;;;;7.64;71.27;100977.34;4973134;28;45454;-79
2021/12/06 07:20:08;;;;;;;;;14.75;11.75;;;;;7.64;71.08;100974.72;4974058;28;45345;-78
2021/12/06 07:22:34;;;;;;;;;16.00;14.00;;;;;7.64;70.96;100987.81;4974037;28;45385;-77
2021/12/06 07:24:59;;;;;;;;;9.75;9.00;;;;;7.47;70.85;100956.28;4974311;28;45384;-79
2021/12/06 07:27:25;;;;;;;;;13.00;12.25;;;;;7.29;70.98;100922.94;4974080;28;45457;-78
2021/12/06 07:29:50;;;;;;;;;12.00;12.00;;;;;7.61;70.74;100987.78;4974066;28;45401;-75
2021/12/06 07:32:16;;;;;;;;;12.75;11.00;;;;;7.40;70.54;100956.19;4973853;28;45424;-75
2021/12/06 07:34:41;;;;;;;;;15.50;13.25;;;;;7.43;70.99;100978.06;4940333;28;45436;-75
2021/12/06 07:37:07;;;;;;;;;17.50;14.25;;;;;7.58;71.32;101003.47;4973843;28;47056;-74
2021/12/06 07:39:39;;;;;;;;;12.25;12.25;;;;;7.52;71.44;100990.31;4956008;28;45775;-75
2021/12/06 07:42:04;;;;;;;;;17.00;15.00;;;;;7.53;71.47;100978.13;4973602;28;45396;-73
2021/12/06 07:44:31;;;;;;;;;15.50;14.25;;;;;7.60;71.28;100988.66;4956409;28;45419;-71
2021/12/06 07:46:57;;;;;;;;;16.50;13.25;;;;;7.65;71.09;100996.56;4956162;28;47158;-72
2021/12/06 07:49:22;;;;;;;;;15.25;14.00;;;;;7.68;71.45;101000.06;4956247;28;45416;-72
2021/12/06 07:51:49;;;;;;;;;26.00;23.25;;;;;7.68;71.16;100992.19;4973475;28;45392;-71
2021/12/06 07:54:15;;;;;;;;;15.75;14.25;;;;;7.73;70.77;101000.09;4973845;28;45396;-74
2021/12/06 07:56:41;;;;;;;;;19.00;15.50;;;;;7.68;70.90;101005.31;4955950;28;46122;-71
2021/12/06 07:59:07;;;;;;;;;18.25;17.25;;;;;7.55;70.99;100979.03;4973341;28;45276;-71
2021/12/06 08:01:32;;;;;;;;;19.25;14.25;;;;;7.43;70.70;100957.09;4955960;28;45598;-72
2021/12/06 08:04:00;;;;;;;;;30.00;26.50;;;;;7.77;71.23;101006.25;4956364;28;45676;-82
2021/12/06 08:06:27;;;;;;;;;23.50;21.00;;;;;7.64;70.79;100981.69;4973332;28;46166;-72
2021/12/06 08:08:53;;;;;;;;;20.75;20.75;;;;;7.78;70.20;101005.38;4955028;28;45423;-71
2021/12/06 08:11:21;;;;;;;;;22.50;19.25;;;;;7.79;70.22;100996.63;4973550;28;45314;-71
2021/12/06 08:13:59;;;;;;;;;22.50;20.75;;;;;7.82;70.14;100999.28;4973150;28;45218;-71
2021/12/06 08:16:32;;;;;;;;;26.75;21.50;;;;;7.77;69.94;100991.41;4973260;28;47104;-72
2021/12/06 08:18:59;;;;;;;;;23.50;19.75;;;;;7.79;70.04;100994.91;4973156;28;45211;-72
2021/12/06 08:21:27;;;;;;;;;22.50;19.50;;;;;7.74;69.63;100996.59;4974151;28;45388;-70
2021/12/06 08:23:54;;;;;;;;;17.75;16.50;;;;;7.72;69.49;100999.22;4973212;28;45361;-71
2021/12/06 08:26:22;;;;;;;;;18.75;18.75;;;;;7.64;68.99;100964.25;4955360;28;46185;-79
2021/12/06 08:28:49;;;;;;;;;25.25;21.75;;;;;7.68;69.26;100960.75;4974913;28;45438;-71
2021/12/06 08:31:16;;;;;;;;;43.00;38.75;;;;;7.85;69.50;100980.97;4976324;28;45365;-71
2021/12/06 08:33:41;;;;;;;;;25.75;23.50;;;;;7.88;68.78;100967.88;4976442;28;45543;-70
2021/12/06 08:36:09;;;;;;;;;27.75;24.75;;;;;7.80;69.28;100953.84;4958814;28;45386;-70
2021/12/06 08:38:38;;;;;;;;;33.25;29.75;;;;;7.94;68.91;100986.25;4976323;28;45349;-70
2021/12/06 08:41:09;;;;;;;;;18.75;16.50;;;;;7.79;69.48;100967.81;4976326;28;45645;-71
2021/12/06 08:43:35;;;;;;;;;21.50;20.25;;;;;7.89;69.62;100975.75;4976272;28;45436;-72
2021/12/06 08:46:13;;;;;;;;;25.00;19.75;;;;;7.89;70.31;100967.03;4975883;28;46321;-72
2021/12/06 08:48:40;;;;;;;;;18.75;18.25;;;;;7.99;70.32;100987.16;4976090;28;45401;-72
2021/12/06 08:51:20;;;;;;;;;18.75;16.25;;;;;8.03;70.12;100988.91;4976254;28;45364;-72
2021/12/06 08:53:47;;;;;;;;;21.25;20.25;;;;;7.71;69.78;100924.09;4976401;28;45500;-70
2021/12/06 08:56:13;;;;;;;;;30.00;25.00;;;;;7.95;70.10;100944.31;4975797;28;46226;-70
2021/12/06 08:58:41;;;;;;;;;37.00;33.00;;;;;7.95;70.20;100944.31;4975895;28;45507;-73
2021/12/06 09:01:07;;;;;;;;;19.75;17.75;;;;;8.03;70.04;100962.69;4958757;28;45411;-71
2021/12/06 09:03:34;;;;;;;;;22.50;21.50;;;;;7.85;69.83;100933.78;4958411;28;45404;-70
2021/12/06 09:06:01;;;;;;;;;35.75;33.50;;;;;7.89;69.67;100928.56;4975674;28;45449;-71
2021/12/06 09:08:27;;;;;;;;;18.75;18.50;;;;;8.03;69.87;100962.69;4975929;28;45340;-70
2021/12/06 09:10:53;;;;;;;;;59.00;48.50;;;;;8.00;70.04;100962.69;4975827;28;45369;-71
2021/12/06 09:13:23;;;;;;;;;38.75;37.50;;;;;7.99;70.12;100946.97;4976094;28;45483;-69
2021/12/06 09:15:49;;;;;;;;;35.75;34.00;;;;;8.16;69.45;100975.00;4975334;28;46672;-70
2021/12/06 09:18:15;;;;;;;;;30.00;28.00;;;;;7.87;69.60;100913.72;4975582;28;45503;-71
2021/12/06 09:20:44;;;;;;;;;29.50;26.50;;;;;8.25;69.24;100986.41;4975368;28;45425;-71
2021/12/06 09:23:12;;;;;;;;;29.50;29.25;;;;;8.14;68.97;100960.16;4975418;28;45418;-71
2021/12/06 09:25:37;;;;;;;;;25.00;23.25;;;;;8.29;68.32;100985.56;4975454;28;45412;-70
2021/12/06 09:28:03;;;;;;;;;25.50;22.50;;;;;8.10;68.01;100964.47;4975409;28;45833;-71
2021/12/06 09:30:33;;;;;;;;;22.50;22.50;;;;;7.93;67.27;100917.22;4975615;28;45400;-73
2021/12/06 09:33:01;;;;;;;;;26.00;20.00;;;;;8.27;66.54;100966.31;4958002;28;45612;-73
2021/12/06 09:35:29;;;;;;;;;17.00;17.00;;;;;8.24;65.88;100967.19;4957603;28;47148;-70
2021/12/06 09:37:58;;;;;;;;;21.25;18.25;;;;;8.35;66.12;100978.59;4957838;28;46140;-72
2021/12/06 09:40:27;;;;;;;;;28.25;25.00;;;;;8.27;66.11;100966.31;4957094;28;45447;-72
2021/12/06 09:42:55;;;;;;;;;19.75;16.50;;;;;8.26;66.72;100990.78;4974895;28;45306;-72
2021/12/06 09:45:27;;;;;;;;;26.00;23.50;;;;;8.05;66.42;100960.97;4974739;28;46308;-74
2021/12/06 09:47:53;;;;;;;;;21.25;20.50;;;;;8.05;66.46;100960.97;4975552;28;45530;-78
2021/12/06 09:50:27;;;;;;;;;21.25;18.75;;;;;8.05;66.78;100952.22;4975707;28;45295;-71
2021/12/06 09:52:55;;;;;;;;;15.00;14.25;;;;;8.22;65.72;100983.78;4974934;28;45385;-75
2021/12/06 09:55:21;;;;;;;;;17.25;17.25;;;;;7.96;65.49;100955.66;4957137;28;46942;-74
2021/12/06 09:57:46;;;;;;;;;19.50;15.50;;;;;8.05;66.38;100966.22;4974916;28;45330;-75
2021/12/06 10:00:15;;;;;;;;;26.00;20.75;;;;;7.96;65.91;100942.56;4975134;28;45539;-75
2021/12/06 10:02:41;;;;;;;;;17.25;17.25;;;;;7.96;65.82;100939.94;4974844;28;45402;-77
2021/12/06 10:05:07;;;;;;;;;24.00;18.00;;;;;8.01;65.86;100935.63;4974745;28;46087;-77
2021/12/06 10:07:33;;;;;;;;;12.00;12.00;;;;;8.10;65.48;100961.84;4941460;28;45414;-77
2021/12/06 10:09:59;;;;;;;;;12.75;10.75;;;;;8.22;65.47;100982.03;4975159;28;45357;-80
2021/12/06 10:12:26;;;;;;;;;17.75;16.50;;;;;7.83;65.31;100914.56;4975282;28;45439;-71
2021/12/06 10:14:52;;;;;;;;;16.75;14.25;;;;;7.93;65.11;100917.22;4974732;28;45601;-73
2021/12/06 10:17:19;;;;;;;;;16.50;16.00;;;;;8.12;65.08;100952.25;4974710;28;45372;-75
2021/12/06 10:19:45;;;;;;;;;19.00;17.25;;;;;8.18;65.65;100937.44;4974941;28;45392;-73
2021/12/06 10:22:11;;;;;;;;;24.00;19.00;;;;;8.11;65.77;100916.44;4975107;28;45396;-71
2021/12/06 10:24:37;;;;;;;;;137.67;122.00;;;;;8.02;65.88;100902.41;4973905;28;46310;-74
2021/12/06 10:27:04;;;;;;;;;13.75;10.75;;;;;8.33;65.81;100945.38;4957026;28;45755;-72
2021/12/06 10:29:37;;;;;;;;;17.25;17.25;;;;;8.28;65.68;100933.97;4974099;28;45351;-73
2021/12/06 10:32:14;;;;;;;;;17.25;15.75;;;;;8.35;65.22;100935.72;4956719;28;45555;-73
2021/12/06 10:34:46;;;;;;;;;11.25;11.25;;;;;8.23;65.18;100913.00;4973911;28;46617;-72
2021/12/06 10:37:46;;;;;;;;;24.00;22.00;;;;;8.26;65.28;100907.75;4974460;28;45351;-74
2021/12/06 10:40:27;;;;;;;;;13.00;11.25;;;;;8.23;65.05;100876.28;4917183;28;45581;-75
2021/12/06 10:42:54;;;;;;;;;16.00;14.75;;;;;8.27;64.85;100883.28;4932979;28;45413;-74
2021/12/06 10:45:29;;;;;;;;;14.50;13.75;;;;;8.38;65.18;100907.78;4933200;28;47171;-74
2021/12/06 10:48:14;;;;;;;;;19.00;17.25;;;;;8.39;65.35;100913.91;4932669;28;45370;-75
2021/12/06 10:50:48;;;;;;;;;21.00;19.00;;;;;8.44;65.08;100891.22;4932911;28;45271;-73
2021/12/06 10:53:15;;;;;;;;;48.00;40.50;;;;;8.44;65.63;100890.34;4932492;28;45607;-74
2021/12/06 10:55:43;;;;;;;;;23.00;19.75;;;;;8.36;65.25;100874.56;4932662;28;46598;-74
2021/12/06 10:58:13;;;;;;;;;24.75;21.75;;;;;8.50;65.36;100882.47;4933054;28;45287;-75
2021/12/06 11:00:50;;;;;;;;;42.75;38.50;;;;;8.37;65.63;100845.69;4932726;28;45918;-74
2021/12/06 11:03:22;;;;;;;;;46.50;37.75;;;;;8.65;65.86;100879.00;4932994;28;45625;-74
2021/12/06 11:06:03;;;;;;;;;21.50;21.00;;;;;8.72;65.77;100886.91;4932842;28;46551;-76
2021/12/06 11:08:31;;;;;;;;;15.25;14.25;;;;;8.58;65.52;100847.53;4932443;28;45426;-81
2021/12/06 11:11:00;;;;;;;;;21.00;21.00;;;;;8.74;65.29;100863.25;4916598;28;45486;-73
2021/12/06 11:13:39;;;;;;;;;51.00;39.75;;;;;8.54;64.72;100827.38;4932528;28;45550;-74
2021/12/06 11:16:12;;;;;;;;;31.50;28.50;;;;;8.84;64.92;100874.63;4935909;28;45510;-74
2021/12/06 11:18:44;;;;;;;;;37.75;35.50;;;;;8.81;64.85;100870.28;4955606;28;45670;-76
2021/12/06 11:21:24;;;;;;;;;37.25;34.75;;;;;8.82;65.03;100861.53;4973148;28;45289;-75
2021/12/06 11:24:07;;;;;;;;;23.50;21.75;;;;;8.82;64.79;100866.78;4972992;28;45594;-75
2021/12/06 11:26:39;;;;;;;;;21.50;21.50;;;;;8.75;64.79;100875.53;4972378;28;46393;-76
2021/12/06 11:29:39;;;;;;;;;613.60;546.40;;;;;8.53;64.54;100838.78;4972784;28;45761;-74
2021/12/06 11:32:22;;;;;;;;;22.50;22.00;;;;;8.77;64.83;100879.91;4916038;28;45393;-75
2021/12/06 11:35:03;;;;;;;;;24.00;21.00;;;;;8.71;64.60;100864.13;4932261;28;45572;-72
2021/12/06 11:37:32;;;;;;;;;25.00;24.75;;;;;8.15;65.02;100758.25;4931644;28;46465;-73
2021/12/06 11:40:17;;;;;;;;;22.00;20.50;;;;;8.85;64.49;100861.53;4931829;28;45333;-73
2021/12/06 11:43:06;;;;;;;;;39.75;33.75;;;;;8.86;64.45;100852.75;4932466;28;45419;-72
2021/12/06 11:45:31;;;;;;;;;16.50;16.50;;;;;8.90;64.75;100843.16;4916323;28;45534;-72